createdAt,value
2023-02-06T04:05:58.137Z,-8.55
2023-02-06T04:08:01.004Z,-8.48
2023-02-06T04:10:04.521Z,-8.43
2023-02-06T04:12:07.536Z,-8.35
2023-02-06T04:14:10.144Z,-8.31
2023-02-06T04:16:12.869Z,-8.26
2023-02-06T04:18:15.609Z,-8.18
2023-02-06T04:20:18.341Z,-8.17
2023-02-06T04:22:20.931Z,-8.15
2023-02-06T04:24:24.024Z,-8.11
2023-02-06T04:26:26.654Z,-8.13
2023-02-06T04:28:29.353Z,-8.10
2023-02-06T04:30:32.004Z,-8.11
2023-02-06T04:32:34.746Z,-8.11
2023-02-06T04:34:38.471Z,-8.12
2023-02-06T04:36:41.211Z,-8.09
2023-02-06T04:38:43.807Z,-8.13
2023-02-06T04:40:46.431Z,-8.24
2023-02-06T04:42:48.989Z,-8.32
2023-02-06T04:44:51.616Z,-8.31
2023-02-06T04:46:54.380Z,-8.36
2023-02-06T04:48:56.947Z,-8.38
2023-02-06T04:50:59.541Z,-8.38
2023-02-06T04:53:02.266Z,-8.38
2023-02-06T04:55:04.907Z,-8.35
2023-02-06T04:57:07.599Z,-8.38
2023-02-06T04:59:10.362Z,-8.36
2023-02-06T05:01:13.078Z,-8.37
2023-02-06T05:03:15.789Z,-8.43
2023-02-06T05:05:18.583Z,-8.44
2023-02-06T05:07:21.322Z,-8.43
2023-02-06T05:09:23.952Z,-8.45
2023-02-06T05:11:26.968Z,-8.45
2023-02-06T05:13:29.645Z,-8.49
2023-02-06T05:15:32.259Z,-8.52
2023-02-06T05:17:34.952Z,-8.57
2023-02-06T05:19:37.545Z,-8.63
2023-02-06T05:21:40.100Z,-8.71
2023-02-06T05:23:42.730Z,-8.77
2023-02-06T05:25:45.346Z,-8.79
2023-02-06T05:27:48.073Z,-8.82
2023-02-06T05:29:50.715Z,-8.88
2023-02-06T05:31:53.393Z,-8.95
2023-02-06T05:33:56.003Z,-8.96
2023-02-06T05:36:03.410Z,-8.93
2023-02-06T05:38:06.197Z,-8.95
2023-02-06T05:40:09.844Z,-8.88
2023-02-06T05:42:12.459Z,-8.87
2023-02-06T05:44:15.072Z,-8.89
2023-02-06T05:46:17.759Z,-8.79
2023-02-06T05:48:20.339Z,-8.68
2023-02-06T05:50:22.908Z,-8.61
2023-02-06T05:52:25.541Z,-8.56
2023-02-06T05:54:28.148Z,-8.48
2023-02-06T05:56:30.811Z,-8.39
2023-02-06T05:58:33.504Z,-8.33
2023-02-06T06:00:36.122Z,-8.26
2023-02-06T06:02:38.913Z,-8.18
2023-02-06T06:04:41.534Z,-8.07
2023-02-06T06:06:44.158Z,-7.99
2023-02-06T06:08:46.860Z,-7.90
2023-02-06T06:10:53.049Z,-7.84
2023-02-06T06:12:55.650Z,-7.77
2023-02-06T06:14:58.193Z,-7.67
2023-02-06T06:17:00.978Z,-7.55
2023-02-06T06:19:04.100Z,-7.45
2023-02-06T06:21:06.799Z,-7.39
2023-02-06T06:23:09.380Z,-7.34
2023-02-06T06:25:12.111Z,-7.30
2023-02-06T06:27:14.779Z,-7.23
2023-02-06T06:29:17.366Z,-7.09
2023-02-06T06:31:20.195Z,-6.93
2023-02-06T06:33:22.860Z,-6.80
2023-02-06T06:35:26.244Z,-6.62
2023-02-06T06:37:28.898Z,-6.45
2023-02-06T06:39:31.500Z,-6.34
2023-02-06T06:41:34.062Z,-6.29
2023-02-06T06:43:36.755Z,-6.30
2023-02-06T06:45:39.671Z,-6.28
2023-02-06T06:47:42.690Z,-6.31
2023-02-06T06:49:45.441Z,-6.31
2023-02-06T06:51:48.024Z,-6.39
2023-02-06T06:53:50.616Z,-6.38
2023-02-06T06:55:53.203Z,-6.43
2023-02-06T06:57:55.912Z,-6.43
2023-02-06T06:59:58.852Z,-6.41
2023-02-06T07:02:01.639Z,-6.39
2023-02-06T07:04:04.374Z,-6.38
2023-02-06T07:06:07.192Z,-6.30
2023-02-06T07:08:09.837Z,-6.25
2023-02-06T07:10:13.299Z,-6.22
2023-02-06T07:12:16.038Z,-6.22
2023-02-06T07:14:18.704Z,-6.22
2023-02-06T07:16:21.316Z,-6.28
2023-02-06T07:18:24.039Z,-6.30
2023-02-06T07:20:26.599Z,-6.31
2023-02-06T07:22:29.442Z,-6.40
2023-02-06T07:24:32.101Z,-6.40
2023-02-06T07:26:35.116Z,-6.40
2023-02-06T07:28:37.935Z,-6.35
2023-02-06T07:30:40.623Z,-6.30
2023-02-06T07:32:43.326Z,-6.21
2023-02-06T07:34:45.962Z,-6.15
2023-02-06T07:36:48.582Z,-6.11
2023-02-06T07:38:51.184Z,-6.08
2023-02-06T07:40:53.945Z,-6.04
2023-02-06T07:42:56.488Z,-6.03
2023-02-06T07:44:59.091Z,-5.95
2023-02-06T07:47:01.698Z,-5.93
2023-02-06T07:49:04.319Z,-5.92
2023-02-06T07:51:08.763Z,-5.87
2023-02-06T07:53:11.401Z,-5.84
2023-02-06T07:55:13.999Z,-5.81
2023-02-06T07:57:17.589Z,-5.78
2023-02-06T07:59:21.780Z,-5.71
2023-02-06T08:01:24.509Z,-5.63
2023-02-06T08:03:27.671Z,-5.49
2023-02-06T08:05:32.217Z,-5.41
2023-02-06T08:07:35.259Z,-5.42
2023-02-06T08:09:37.807Z,-5.45
2023-02-06T08:11:40.441Z,-5.45
2023-02-06T08:13:44.036Z,-5.40
2023-02-06T08:15:46.685Z,-5.33
2023-02-06T08:17:49.346Z,-5.29
2023-02-06T08:19:51.937Z,-5.19
2023-02-06T08:21:54.563Z,-5.17
2023-02-06T08:24:01.103Z,-5.11
2023-02-06T08:26:11.909Z,-4.98
2023-02-06T08:28:15.149Z,-4.94
2023-02-06T08:30:17.996Z,-4.92
2023-02-06T08:32:20.674Z,-4.89
2023-02-06T08:34:23.337Z,-4.92
2023-02-06T08:36:26.888Z,-4.88
2023-02-06T08:38:29.568Z,-4.81
2023-02-06T08:40:32.736Z,-4.83
2023-02-06T08:42:36.188Z,-4.74
2023-02-06T08:44:38.930Z,-4.68
2023-02-06T08:46:41.922Z,-4.68
2023-02-06T08:48:44.962Z,-4.83
2023-02-06T08:50:50.264Z,-4.72
2023-02-06T08:52:53.000Z,-4.68
2023-02-06T08:54:55.666Z,-4.69
2023-02-06T08:57:01.135Z,-4.65
2023-02-06T08:59:05.575Z,-4.56
2023-02-06T09:01:14.557Z,-4.46
2023-02-06T09:03:17.323Z,-4.32
2023-02-06T09:05:21.035Z,-4.22
2023-02-06T09:07:24.595Z,-4.11
2023-02-06T09:09:27.378Z,-4.08
2023-02-06T09:11:30.606Z,-4.05
2023-02-06T09:13:33.220Z,-4.00
2023-02-06T09:15:36.439Z,-3.91
2023-02-06T09:17:39.308Z,-3.83
2023-02-06T09:19:42.068Z,-3.79
2023-02-06T09:21:44.663Z,-3.79
2023-02-06T09:23:53.820Z,-3.95
2023-02-06T09:25:56.443Z,-4.24
2023-02-06T09:27:59.120Z,-4.54
2023-02-06T09:30:01.811Z,-4.86
2023-02-06T09:32:06.466Z,-5.13
2023-02-06T09:34:11.136Z,-5.50
2023-02-06T09:36:16.332Z,-5.71
2023-02-06T09:38:19.086Z,-5.67
2023-02-06T09:40:25.218Z,-5.49
2023-02-06T09:42:36.079Z,-5.17
2023-02-06T09:44:49.559Z,-4.89
2023-02-06T09:46:55.040Z,-5.13
2023-02-06T09:49:00.964Z,-5.21
2023-02-06T09:51:17.175Z,-5.13
2023-02-06T09:53:30.178Z,-4.95
2023-02-06T09:56:08.226Z,-4.72
2023-02-06T09:58:34.682Z,-4.48
2023-02-06T10:00:44.842Z,-4.29
2023-02-06T10:03:12.041Z,-4.13
2023-02-06T10:05:39.421Z,-4.10
2023-02-06T10:08:00.514Z,-4.21
2023-02-06T10:10:11.469Z,-4.11
2023-02-06T10:12:29.250Z,-3.95
2023-02-06T10:14:44.276Z,-3.77
2023-02-06T10:16:51.504Z,-3.73
2023-02-06T10:18:59.724Z,-3.77
2023-02-06T10:21:15.489Z,-3.83
2023-02-06T10:23:22.650Z,-3.99
2023-02-06T10:25:33.465Z,-4.12
2023-02-06T10:27:38.139Z,-4.33
2023-02-06T10:29:43.738Z,-4.41
2023-02-06T10:32:12.163Z,-4.48
2023-02-06T10:34:17.944Z,-4.34
2023-02-06T10:36:35.641Z,-4.21
2023-02-06T10:38:47.031Z,-4.50
2023-02-06T10:41:07.884Z,-4.72
2023-02-06T10:43:52.974Z,-4.82
2023-02-06T10:46:14.037Z,-4.64
2023-02-06T10:48:26.464Z,-4.64
2023-02-06T10:51:04.118Z,-4.76
2023-02-06T10:53:38.791Z,-4.78
2023-02-06T10:55:58.104Z,-4.79
2023-02-06T10:58:13.245Z,-4.90
2023-02-06T11:00:25.839Z,-4.85
2023-02-06T11:03:06.771Z,-4.93
2023-02-06T11:05:31.742Z,-5.22
2023-02-06T11:07:45.136Z,-5.41
2023-02-06T11:09:47.893Z,-5.40
2023-02-06T11:11:52.141Z,-5.31
2023-02-06T11:14:02.048Z,-5.45
2023-02-06T11:16:16.685Z,-5.71
2023-02-06T11:18:22.264Z,-5.77
2023-02-06T11:20:28.595Z,-5.83
2023-02-06T11:22:34.882Z,-5.78
2023-02-06T11:25:36.328Z,-5.64
2023-02-06T11:27:44.366Z,-5.50
2023-02-06T11:29:51.922Z,-5.50
2023-02-06T11:31:59.819Z,-5.47
2023-02-06T11:34:02.466Z,-5.57
2023-02-06T11:36:07.536Z,-5.50
2023-02-06T11:38:22.148Z,-5.56
2023-02-06T11:40:27.673Z,-5.49
2023-02-06T11:42:30.351Z,-5.44
2023-02-06T11:44:41.456Z,-5.40
2023-02-06T11:46:44.000Z,-5.40
2023-02-06T11:48:47.840Z,-5.42
2023-02-06T11:50:55.041Z,-5.39
2023-02-06T11:53:17.077Z,-5.33
2023-02-06T11:55:36.892Z,-5.32
2023-02-06T11:57:40.000Z,-5.31
2023-02-06T11:59:52.683Z,-5.29
2023-02-06T12:01:57.967Z,-5.29
2023-02-06T12:04:00.823Z,-5.30
2023-02-06T12:06:15.759Z,-5.28
2023-02-06T12:08:21.827Z,-5.28
2023-02-06T12:10:26.333Z,-5.31
2023-02-06T12:12:40.766Z,-5.26
2023-02-06T12:14:56.531Z,-5.25
2023-02-06T12:17:02.458Z,-5.19
2023-02-06T12:19:11.814Z,-5.10
2023-02-06T12:21:27.107Z,-5.02
2023-02-06T12:23:43.362Z,-4.97
2023-02-06T12:25:51.717Z,-4.95
2023-02-06T12:28:05.563Z,-4.93
2023-02-06T12:30:30.212Z,-4.97
2023-02-06T12:32:42.231Z,-5.07
2023-02-06T12:34:49.818Z,-5.04
2023-02-06T12:37:16.286Z,-5.09
2023-02-06T12:39:22.709Z,-5.10
2023-02-06T12:41:25.208Z,-5.14
2023-02-06T12:43:32.554Z,-5.18
2023-02-06T12:46:17.654Z,-5.29
2023-02-06T12:48:47.430Z,-5.35
2023-02-06T12:51:29.240Z,-5.58
2023-02-06T12:53:42.755Z,-5.69
2023-02-06T12:56:02.283Z,-5.82
2023-02-06T12:58:21.224Z,-5.95
2023-02-06T13:00:42.623Z,-6.09
2023-02-06T13:03:10.238Z,-6.22
2023-02-06T13:05:23.143Z,-6.33
2023-02-06T13:07:26.351Z,-6.44
2023-02-06T13:09:36.249Z,-6.54
2023-02-06T13:11:41.020Z,-6.68
2023-02-06T13:13:44.772Z,-6.80
2023-02-06T13:15:55.047Z,-6.87
2023-02-06T13:18:00.549Z,-6.90
2023-02-06T13:20:11.638Z,-6.95
2023-02-06T13:22:15.842Z,-7.02
2023-02-06T13:24:21.094Z,-7.03
2023-02-06T13:26:48.903Z,-7.14
2023-02-06T13:29:00.193Z,-7.15
2023-02-06T13:31:07.441Z,-7.19
2023-02-06T13:33:16.689Z,-7.24
2023-02-06T13:35:33.111Z,-7.30
2023-02-06T13:37:35.597Z,-7.34
2023-02-06T13:39:38.528Z,-7.40
2023-02-06T13:41:42.669Z,-7.38
2023-02-06T13:44:08.082Z,-7.40
2023-02-06T13:46:17.960Z,-7.38
2023-02-06T13:48:38.828Z,-7.41
2023-02-06T13:50:42.929Z,-7.44
2023-02-06T13:53:23.437Z,-7.58
2023-02-06T13:55:50.375Z,-7.51
2023-02-06T13:58:11.616Z,-7.54
2023-02-06T14:00:20.492Z,-7.54
2023-02-06T14:02:30.283Z,-7.55
2023-02-06T14:04:33.677Z,-7.62
2023-02-06T14:06:51.401Z,-7.58
2023-02-06T14:09:05.529Z,-7.60
2023-02-06T14:11:32.662Z,-7.58
2023-02-06T14:14:14.792Z,-7.54
2023-02-06T14:16:38.104Z,-7.51
2023-02-06T14:19:03.375Z,-7.52
2023-02-06T14:21:21.560Z,-7.50
2023-02-06T14:23:45.726Z,-7.52
2023-02-06T14:26:03.596Z,-7.54
2023-02-06T14:28:26.953Z,-7.55
2023-02-06T14:30:32.553Z,-7.59
2023-02-06T14:33:02.572Z,-7.66
2023-02-06T14:35:14.397Z,-7.61
2023-02-06T14:37:51.087Z,-7.54
2023-02-06T14:40:04.369Z,-7.51
2023-02-06T14:42:24.511Z,-7.50
2023-02-06T14:44:31.262Z,-7.48
2023-02-06T14:46:33.935Z,-7.44
2023-02-06T14:48:53.952Z,-7.40
2023-02-06T14:50:58.461Z,-7.40
2023-02-06T14:53:23.122Z,-7.48
2023-02-06T14:55:30.498Z,-7.47
2023-02-06T14:57:33.102Z,-7.49
2023-02-06T14:59:35.763Z,-7.53
2023-02-06T15:01:39.023Z,-7.46
2023-02-06T15:03:42.350Z,-7.44
2023-02-06T15:05:45.569Z,-7.40
2023-02-06T15:07:58.015Z,-7.45
2023-02-06T15:10:18.375Z,-7.48
2023-02-06T15:12:26.852Z,-7.55
2023-02-06T15:14:34.898Z,-7.60
2023-02-06T15:16:49.072Z,-7.59
2023-02-06T15:18:51.798Z,-7.55
2023-02-06T15:21:04.455Z,-7.66
2023-02-06T15:23:18.050Z,-7.58
2023-02-06T15:25:40.408Z,-7.59
2023-02-06T15:27:43.025Z,-7.54
2023-02-06T15:29:50.497Z,-7.55
2023-02-06T15:32:04.274Z,-7.51
2023-02-06T15:34:06.894Z,-7.54
2023-02-06T15:36:28.792Z,-7.51
2023-02-06T15:38:33.564Z,-7.48
2023-02-06T15:40:39.788Z,-7.52
2023-02-06T15:42:42.854Z,-7.55
2023-02-06T15:44:46.344Z,-7.56
2023-02-06T15:46:50.612Z,-7.56
2023-02-06T15:48:55.223Z,-7.58
2023-02-06T15:51:15.536Z,-7.63
2023-02-06T15:53:29.491Z,-7.58
2023-02-06T15:55:36.299Z,-7.60
2023-02-06T15:57:42.698Z,-7.61
2023-02-06T15:59:45.684Z,-7.66
2023-02-06T16:01:49.003Z,-7.62
2023-02-06T16:03:56.957Z,-7.64
2023-02-06T16:06:00.358Z,-7.72
2023-02-06T16:08:05.048Z,-7.66
2023-02-06T16:10:29.964Z,-7.62
2023-02-06T16:12:35.848Z,-7.59
2023-02-06T16:14:41.535Z,-7.62
2023-02-06T16:16:56.542Z,-7.62
2023-02-06T16:18:59.578Z,-7.57
2023-02-06T16:21:27.304Z,-7.59
2023-02-06T16:23:43.740Z,-7.59
2023-02-06T16:25:48.913Z,-7.54
2023-02-06T16:27:52.397Z,-7.54
2023-02-06T16:29:57.411Z,-7.53
2023-02-06T16:32:11.645Z,-7.53
2023-02-06T16:34:30.483Z,-7.58
2023-02-06T16:36:33.678Z,-7.56
2023-02-06T16:38:36.333Z,-7.56
2023-02-06T16:40:39.068Z,-7.53
2023-02-06T16:42:42.513Z,-7.49
2023-02-06T16:44:49.872Z,-7.52
2023-02-06T16:46:52.830Z,-7.51
2023-02-06T16:48:56.539Z,-7.49
2023-02-06T16:50:59.614Z,-7.54
2023-02-06T16:53:03.736Z,-7.58
2023-02-06T16:55:06.987Z,-7.55
2023-02-06T16:57:20.530Z,-7.57
2023-02-06T16:59:23.143Z,-7.64
2023-02-06T17:01:28.523Z,-7.73
2023-02-06T17:03:32.687Z,-7.79
2023-02-06T17:05:37.451Z,-7.83
2023-02-06T17:07:40.524Z,-7.86
2023-02-06T17:09:44.371Z,-7.89
2023-02-06T17:11:46.978Z,-7.84
2023-02-06T17:13:49.594Z,-7.86
2023-02-06T17:15:53.346Z,-7.91
2023-02-06T17:17:55.917Z,-7.88
2023-02-06T17:19:58.764Z,-7.96
2023-02-06T17:22:01.606Z,-7.91
2023-02-06T17:24:04.722Z,-7.88
2023-02-06T17:26:11.805Z,-7.81
2023-02-06T17:28:18.324Z,-7.86
2023-02-06T17:30:23.756Z,-7.88
2023-02-06T17:32:26.417Z,-7.84
2023-02-06T17:34:30.355Z,-7.76
2023-02-06T17:36:39.650Z,-7.71
2023-02-06T17:38:42.365Z,-7.72
2023-02-06T17:40:45.011Z,-7.70
2023-02-06T17:42:49.205Z,-7.68
2023-02-06T17:44:51.848Z,-7.70
2023-02-06T17:46:54.474Z,-7.73
2023-02-06T17:48:57.357Z,-7.69
2023-02-06T17:50:59.883Z,-7.67
2023-02-06T17:53:03.837Z,-7.66
2023-02-06T17:55:07.283Z,-7.66
2023-02-06T17:57:10.089Z,-7.67
2023-02-06T17:59:12.720Z,-7.74
2023-02-06T18:01:20.755Z,-7.72
2023-02-06T18:03:23.647Z,-7.66
2023-02-06T18:05:26.500Z,-7.68
2023-02-06T18:07:29.095Z,-7.77
2023-02-06T18:09:31.663Z,-7.70
2023-02-06T18:11:35.928Z,-7.69
2023-02-06T18:13:40.156Z,-7.72
2023-02-06T18:15:50.097Z,-7.75
2023-02-06T18:17:54.929Z,-7.83
2023-02-06T18:19:57.631Z,-7.90
2023-02-06T18:22:00.377Z,-7.96
2023-02-06T18:24:02.950Z,-7.97
2023-02-06T18:26:08.679Z,-8.11
2023-02-06T18:28:14.063Z,-8.07
2023-02-06T18:30:17.472Z,-8.12
2023-02-06T18:32:20.142Z,-8.15
2023-02-06T18:34:22.900Z,-8.19
2023-02-06T18:36:26.919Z,-8.22
2023-02-06T18:38:29.491Z,-8.28
2023-02-06T18:40:32.880Z,-8.23
2023-02-06T18:42:53.968Z,-8.23
2023-02-06T18:44:56.793Z,-8.19
2023-02-06T18:46:59.681Z,-8.18
2023-02-06T18:49:02.514Z,-8.18
2023-02-06T18:51:07.768Z,-8.20
2023-02-06T18:53:10.450Z,-8.21
2023-02-06T18:55:13.034Z,-8.27
2023-02-06T18:57:15.701Z,-8.27
2023-02-06T18:59:18.319Z,-8.35
2023-02-06T19:01:24.641Z,-8.42
2023-02-06T19:03:27.238Z,-8.52
2023-02-06T19:05:30.892Z,-8.54
2023-02-06T19:07:33.594Z,-8.58
2023-02-06T19:09:36.190Z,-8.66
2023-02-06T19:11:39.715Z,-8.72
2023-02-06T19:13:44.036Z,-8.75
2023-02-06T19:15:46.863Z,-8.81
2023-02-06T19:17:50.346Z,-8.86
2023-02-06T19:19:52.983Z,-8.93
2023-02-06T19:21:56.405Z,-9.02
2023-02-06T19:24:00.148Z,-9.08
2023-02-06T19:26:07.029Z,-9.22
2023-02-06T19:28:09.605Z,-9.28
2023-02-06T19:30:13.668Z,-9.33
2023-02-06T19:32:16.371Z,-9.42
2023-02-06T19:34:19.091Z,-9.47
2023-02-06T19:36:22.941Z,-9.51
2023-02-06T19:38:25.705Z,-9.56
2023-02-06T19:40:28.281Z,-9.62
2023-02-06T19:42:30.817Z,-9.65
2023-02-06T19:44:34.279Z,-9.71
2023-02-06T19:46:38.172Z,-9.74
2023-02-06T19:48:43.394Z,-9.80
2023-02-06T19:50:46.098Z,-9.83
2023-02-06T19:52:48.706Z,-9.88
2023-02-06T19:54:51.521Z,-9.96
2023-02-06T19:56:54.742Z,-10.03
2023-02-06T19:58:59.241Z,-10.09
2023-02-06T20:01:13.848Z,-10.16
2023-02-06T20:03:17.142Z,-10.23
2023-02-06T20:05:26.110Z,-10.29
2023-02-06T20:07:29.205Z,-10.34
2023-02-06T20:09:31.916Z,-10.37
2023-02-06T20:11:34.504Z,-10.40
2023-02-06T20:13:38.002Z,-10.42
2023-02-06T20:15:40.952Z,-10.45
2023-02-06T20:17:43.598Z,-10.45
2023-02-06T20:19:46.214Z,-10.47
2023-02-06T20:21:52.866Z,-10.46
2023-02-06T20:23:57.738Z,-10.50
2023-02-06T20:26:02.823Z,-10.51
2023-02-06T20:28:05.497Z,-10.52
2023-02-06T20:30:10.051Z,-10.53
2023-02-06T20:32:15.647Z,-10.52
2023-02-06T20:34:18.904Z,-10.51
2023-02-06T20:36:24.242Z,-10.53
2023-02-06T20:38:27.320Z,-10.55
2023-02-06T20:40:29.960Z,-10.59
2023-02-06T20:42:34.454Z,-10.66
2023-02-06T20:44:37.097Z,-10.71
2023-02-06T20:46:39.932Z,-10.74
2023-02-06T20:48:42.777Z,-10.80
2023-02-06T20:50:45.342Z,-10.83
2023-02-06T20:52:47.877Z,-10.87
2023-02-06T20:54:50.417Z,-10.89
2023-02-06T20:56:53.522Z,-10.94
2023-02-06T20:58:58.000Z,-10.99
2023-02-06T21:01:00.611Z,-11.03
2023-02-06T21:03:03.765Z,-11.07
2023-02-06T21:05:07.068Z,-11.09
2023-02-06T21:07:09.714Z,-11.12
2023-02-06T21:09:12.625Z,-11.12
2023-02-06T21:11:15.238Z,-11.11
2023-02-06T21:13:18.525Z,-11.09
2023-02-06T21:15:21.280Z,-11.09
2023-02-06T21:17:23.936Z,-11.12
2023-02-06T21:19:28.965Z,-11.15
2023-02-06T21:21:32.265Z,-11.14
2023-02-06T21:23:35.358Z,-11.18
2023-02-06T21:25:37.904Z,-11.21
2023-02-06T21:27:40.523Z,-11.23
2023-02-06T21:29:43.046Z,-11.26
2023-02-06T21:31:46.409Z,-11.24
2023-02-06T21:33:51.488Z,-11.21
2023-02-06T21:35:54.362Z,-11.22
2023-02-06T21:37:57.935Z,-11.17
2023-02-06T21:40:00.615Z,-11.23
2023-02-06T21:42:03.168Z,-11.20
2023-02-06T21:44:06.050Z,-11.20
2023-02-06T21:46:10.633Z,-11.23
2023-02-06T21:48:13.205Z,-11.21
2023-02-06T21:50:15.834Z,-11.21
2023-02-06T21:52:18.348Z,-11.19
2023-02-06T21:54:21.956Z,-11.22
2023-02-06T21:56:26.856Z,-11.22
2023-02-06T21:58:29.404Z,-11.23
2023-02-06T22:00:32.000Z,-11.25
2023-02-06T22:02:34.623Z,-11.29
2023-02-06T22:04:38.054Z,-11.34
2023-02-06T22:06:41.106Z,-11.39
2023-02-06T22:08:48.108Z,-11.41
2023-02-06T22:10:50.727Z,-11.43
2023-02-06T22:12:53.326Z,-11.45
2023-02-06T22:14:55.933Z,-11.50
2023-02-06T22:16:58.521Z,-11.47
2023-02-06T22:19:01.086Z,-11.60
2023-02-06T22:21:09.022Z,-11.56
2023-02-06T22:23:11.635Z,-11.60
2023-02-06T22:25:14.233Z,-11.61
2023-02-06T22:27:17.198Z,-11.65
2023-02-06T22:29:19.825Z,-11.71
2023-02-06T22:31:25.096Z,-11.75
2023-02-06T22:33:27.596Z,-11.77
2023-02-06T22:35:31.326Z,-11.80
2023-02-06T22:37:34.462Z,-11.86
2023-02-06T22:39:37.137Z,-11.87
2023-02-06T22:41:45.252Z,-11.87
2023-02-06T22:43:49.978Z,-11.90
2023-02-06T22:45:52.562Z,-11.93
2023-02-06T22:47:55.162Z,-11.99
2023-02-06T22:49:57.812Z,-12.03
2023-02-06T22:52:00.348Z,-12.09
2023-02-06T22:54:04.024Z,-12.11
2023-02-06T22:56:36.918Z,-12.11
2023-02-06T22:58:39.597Z,-12.20
2023-02-06T23:00:42.216Z,-12.15
2023-02-06T23:02:44.754Z,-12.17
2023-02-06T23:04:47.275Z,-12.17
2023-02-06T23:06:50.559Z,-12.17
2023-02-06T23:08:53.957Z,-12.18
2023-02-06T23:10:56.828Z,-12.20
2023-02-06T23:12:59.422Z,-12.20
2023-02-06T23:15:01.949Z,-12.24
2023-02-06T23:17:06.499Z,-12.26
2023-02-06T23:19:10.831Z,-12.30
2023-02-06T23:21:14.502Z,-12.30
2023-02-06T23:23:17.083Z,-12.31
2023-02-06T23:25:19.672Z,-12.41
2023-02-06T23:27:22.313Z,-12.36
2023-02-06T23:29:24.876Z,-12.36
2023-02-06T23:31:28.386Z,-12.42
2023-02-06T23:33:31.005Z,-12.43
2023-02-06T23:35:38.450Z,-12.42
2023-02-06T23:37:41.221Z,-12.43
2023-02-06T23:39:43.743Z,-12.45
2023-02-06T23:41:46.383Z,-12.45
2023-02-06T23:44:02.239Z,-12.48
2023-02-06T23:46:06.197Z,-12.52
2023-02-06T23:48:09.032Z,-12.53
2023-02-06T23:50:11.564Z,-12.56
2023-02-06T23:52:14.322Z,-12.61
2023-02-06T23:54:16.963Z,-12.63
2023-02-06T23:56:28.650Z,-12.66
2023-02-06T23:58:31.263Z,-12.68
